This is the latest recevied weather packets stored in our database for station/object KJ4OVR-WX. If no packets are shown the sender has not sent any weather packets the latest 10 day(s).
| Time | Temp. | Humidity | Pressure | Rain* | Wind** | Luminosity | Snow |
|---|---|---|---|---|---|---|---|
| 1777604122 | 11.67° C | 78% | 1015.6 hPa | 0 mm | - | - | - |
| 1777603819 | 11.67° C | 76% | 1015.6 hPa | 0 mm | - | - | - |
| 1777603518 | 11.67° C | 75% | 1015.6 hPa | 0 mm | - | - | - |
| 1777603218 | 11.67° C | 75% | 1015.6 hPa | 0 mm | - | - | - |
| 1777602918 | 11.67° C | 75% | 1015.6 hPa | 0 mm | - | - | - |
| 1777602619 | 11.67° C | 75% | 1015.7 hPa | 0 mm | - | - | - |
| 1777602319 | 11.67° C | 75% | 1015.6 hPa | 0 mm | - | - | - |
| 1777602019 | 11.67° C | 75% | 1015.5 hPa | 0 mm | - | - | - |
| 1777601719 | 11.67° C | 74% | 1015.5 hPa | 0 mm | - | - | - |
| 1777601422 | 11.67° C | 70% | 1015.4 hPa | 0 mm | - | - | - |
| 1777587018 | 18.89° C | 45% | 1013.4 hPa | 0 mm | - | - | - |
| 1777586119 | 18.89° C | 45% | 1013.4 hPa | 0 mm | - | - | - |
| 1777584319 | 18.89° C | 45% | 1013.4 hPa | 0 mm | - | - | - |
| 1777584019 | 18.89° C | 45% | 1013.5 hPa | 0 mm | - | - | - |
| 1777583719 | 18.89° C | 45% | 1013.6 hPa | 0 mm | - | - | - |
| 1777583419 | 18.89° C | 46% | 1013.6 hPa | 0 mm | - | - | - |
| 1777583122 | 18.89° C | 45% | 1013.7 hPa | 0 mm | - | - | - |
| 1777582519 | 18.89° C | 45% | 1013.7 hPa | 0 mm | - | - | - |
| 1777582219 | 18.89° C | 45% | 1013.7 hPa | 0 mm | - | - | - |
| 1777581323 | 18.89° C | 45% | 1013.8 hPa | 0 mm | - | - | - |
| 1777580720 | 18.89° C | 45% | 1014 hPa | 0 mm | - | - | - |
| 1777580419 | 18.89° C | 44% | 1014 hPa | 0 mm | - | - | - |
| 1777580120 | 18.89° C | 45% | 1013.9 hPa | 0 mm | - | - | - |
| 1777579819 | 18.89° C | 45% | 1014.1 hPa | 0 mm | - | - | - |
| 1777579220 | 18.89° C | 46% | 1014.2 hPa | 0 mm | - | - | - |
* Rain latest hour (hover to see other rain measurements)
** Current wind speed in m/s (hover to see current wind gust speed)